Time;durP1;ratioP1;P1;durP2;ratioP2;P2;SDS_P1;SDS_P2;PMS_P1;PMS_P2;Temp;Humidity;BMP_temperature;BMP_pressure;BME280_temperature;BME280_humidity;BME280_pressure;Samples;Min_cycle;Max_cycle;Signal;HPM_P1;HPM_P2
2023/01/10 00:01:59;;;;;;;19.65;3.58;;;7.60;99.90;;;;;;5053865;28;20045;-75
2023/01/10 00:04:25;;;;;;;15.50;4.07;;;7.70;99.90;;;;;;5051117;28;20054;-74
2023/01/10 00:06:51;;;;;;;15.85;3.67;;;7.60;99.90;;;;;;5046741;28;20401;-73
2023/01/10 00:09:17;;;;;;;21.77;4.10;;;7.60;99.90;;;;;;5056491;28;20057;-72
2023/01/10 00:14:28;;;;;;;15.75;3.65;;;7.70;99.90;;;;;;5059861;28;20109;-73
2023/01/10 00:16:54;;;;;;;17.25;4.22;;;7.60;99.90;;;;;;5052380;28;20048;-72
2023/01/10 00:19:20;;;;;;;17.25;4.65;;;7.60;99.90;;;;;;5052357;28;20064;-75
2023/01/10 00:21:45;;;;;;;15.00;4.13;;;7.50;99.90;;;;;;5058602;28;20444;-72
2023/01/10 00:24:21;;;;;;;16.50;4.55;;;7.60;99.90;;;;;;5046651;28;20025;-72
2023/01/10 00:26:53;;;;;;;17.45;4.60;;;7.60;99.90;;;;;;5057147;28;20112;-71
2023/01/10 00:29:24;;;;;;;18.60;5.55;;;7.60;99.90;;;;;;5047547;28;20030;-72
2023/01/10 00:31:50;;;;;;;14.85;4.30;;;7.60;99.90;;;;;;5051421;28;20070;-69
2023/01/10 00:34:16;;;;;;;16.77;4.32;;;7.50;99.90;;;;;;5056586;28;20072;-69
2023/01/10 00:36:41;;;;;;;21.88;4.90;;;7.60;99.90;;;;;;5045529;28;20029;-69
2023/01/10 00:39:09;;;;;;;16.95;4.78;;;7.50;99.90;;;;;;5058319;28;20074;-68
2023/01/10 00:44:19;;;;;;;17.05;4.00;;;7.50;99.90;;;;;;5050349;28;20552;-70
2023/01/10 00:46:45;;;;;;;14.48;4.20;;;7.50;99.90;;;;;;5061276;28;20112;-69
2023/01/10 00:49:14;;;;;;;14.43;4.90;;;7.40;99.90;;;;;;5047741;28;20400;-70
2023/01/10 00:51:39;;;;;;;24.48;4.75;;;7.50;99.90;;;;;;5060591;28;20032;-69
2023/01/10 00:54:05;;;;;;;20.38;5.18;;;7.50;99.90;;;;;;5047628;28;20401;-69
2023/01/10 00:56:31;;;;;;;22.60;5.22;;;7.40;99.90;;;;;;5058161;28;20029;-69
2023/01/10 00:58:57;;;;;;;15.18;4.35;;;7.30;99.90;;;;;;5060617;28;20427;-70
2023/01/10 01:01:22;;;;;;;18.58;4.47;;;7.30;99.90;;;;;;5052093;28;20025;-69
2023/01/10 01:03:48;;;;;;;14.00;4.18;;;7.20;99.90;;;;;;5061495;28;20385;-69
2023/01/10 01:06:13;;;;;;;18.38;4.68;;;7.10;99.90;;;;;;5052309;28;20087;-69
2023/01/10 01:08:39;;;;;;;21.23;4.45;;;7.10;99.90;;;;;;5068444;28;20036;-69
2023/01/10 01:11:05;;;;;;;15.57;4.50;;;7.00;99.90;;;;;;5051240;28;20112;-70
2023/01/10 01:13:30;;;;;;;23.77;5.03;;;7.10;99.90;;;;;;5055981;28;20033;-70
2023/01/10 01:15:59;;;;;;;14.98;4.55;;;7.10;99.90;;;;;;5053974;28;20029;-70
2023/01/10 01:18:26;;;;;;;15.68;3.55;;;7.10;99.90;;;;;;5050288;28;20025;-70
2023/01/10 01:20:56;;;;;;;20.40;4.20;;;6.90;99.90;;;;;;5054629;28;20029;-69
2023/01/10 01:23:22;;;;;;;19.98;4.68;;;6.90;99.90;;;;;;5060615;28;20044;-70
2023/01/10 01:25:52;;;;;;;21.17;4.50;;;6.90;99.90;;;;;;5055103;28;20033;-70
2023/01/10 01:28:19;;;;;;;18.80;4.60;;;6.80;99.90;;;;;;5060588;28;20017;-70
2023/01/10 01:30:44;;;;;;;20.08;4.85;;;6.80;99.90;;;;;;5047738;28;20552;-70
2023/01/10 01:33:10;;;;;;;22.45;4.90;;;6.80;99.90;;;;;;5054999;28;20128;-69
2023/01/10 01:35:36;;;;;;;18.92;4.45;;;6.90;99.90;;;;;;5054551;28;20481;-71
2023/01/10 01:38:02;;;;;;;21.25;5.53;;;6.90;99.90;;;;;;5051926;28;20028;-69
2023/01/10 01:40:28;;;;;;;18.90;4.57;;;6.90;99.90;;;;;;5053342;28;20028;-70
2023/01/10 01:42:56;;;;;;;17.10;3.90;;;6.90;99.90;;;;;;5056358;28;20033;-70
2023/01/10 01:45:22;;;;;;;18.27;4.40;;;6.90;99.90;;;;;;5059848;28;20206;-69
2023/01/10 01:47:58;;;;;;;20.40;4.28;;;7.00;99.90;;;;;;5046693;28;20032;-70
2023/01/10 01:50:27;;;;;;;17.17;3.47;;;7.00;99.90;;;;;;5055224;28;20024;-69
2023/01/10 01:52:56;;;;;;;20.25;4.15;;;7.00;99.90;;;;;;5051824;28;20044;-69
2023/01/10 01:55:24;;;;;;;16.73;3.72;;;6.90;99.90;;;;;;5051065;28;20094;-70
2023/01/10 01:57:52;;;;;;;20.52;4.10;;;6.90;99.90;;;;;;5053725;28;20040;-70
2023/01/10 02:00:18;;;;;;;18.05;3.83;;;7.10;99.90;;;;;;5058973;28;20020;-70
2023/01/10 02:02:53;;;;;;;16.48;4.22;;;7.00;99.90;;;;;;5056717;28;20029;-69
2023/01/10 02:05:23;;;;;;;13.68;3.53;;;7.00;99.90;;;;;;5051079;28;20029;-70
2023/01/10 02:07:53;;;;;;;18.98;4.47;;;7.00;99.90;;;;;;5043468;28;20114;-69
2023/01/10 02:10:28;;;;;;;16.30;4.00;;;7.10;99.90;;;;;;5057029;28;20016;-69
2023/01/10 02:12:57;;;;;;;19.73;4.18;;;7.10;99.90;;;;;;5039669;28;20037;-69
2023/01/10 02:15:23;;;;;;;16.23;3.20;;;7.20;99.90;;;;;;5058302;28;20027;-69
2023/01/10 02:17:51;;;;;;;16.60;3.78;;;7.20;99.90;;;;;;5057982;28;20044;-73
2023/01/10 02:20:19;;;;;;;18.90;4.03;;;7.20;99.90;;;;;;5052607;28;20087;-74
2023/01/10 02:23:06;;;;;;;18.20;4.03;;;7.20;99.90;;;;;;5052399;28;20025;-71
2023/01/10 02:25:56;;;;;;;21.27;4.25;;;7.20;99.90;;;;;;5058277;28;20039;-73
2023/01/10 02:28:25;;;;;;;16.10;3.40;;;7.10;99.90;;;;;;5050305;28;20046;-73
2023/01/10 02:31:34;;;;;;;16.45;3.22;;;7.10;99.90;;;;;;5056905;28;20523;-74
2023/01/10 02:34:14;;;;;;;17.35;3.28;;;7.10;99.90;;;;;;5048998;28;20105;-73
2023/01/10 02:36:42;;;;;;;17.10;3.13;;;7.20;99.90;;;;;;5049992;28;20470;-74
2023/01/10 02:39:15;;;;;;;12.70;3.45;;;7.20;99.90;;;;;;5051970;28;20389;-74
2023/01/10 02:42:08;;;;;;;17.63;3.28;;;7.20;99.90;;;;;;5051483;28;20482;-74
2023/01/10 02:44:46;;;;;;;;;;;7.10;99.90;;;;;;5054613;28;20100;-72
2023/01/10 02:47:13;;;;;;;16.13;3.40;;;7.10;99.90;;;;;;5053834;28;20011;-73
2023/01/10 02:49:50;;;;;;;14.50;3.92;;;7.10;99.90;;;;;;5053301;28;20331;-73
2023/01/10 02:52:28;;;;;;;17.92;4.32;;;7.00;99.90;;;;;;5059055;28;20028;-74
2023/01/10 02:54:59;;;;;;;19.55;3.90;;;7.00;99.90;;;;;;5048596;28;20048;-73
2023/01/10 02:57:48;;;;;;;12.43;3.80;;;6.90;99.90;;;;;;5054646;28;20075;-73
2023/01/10 03:00:41;;;;;;;14.63;3.80;;;6.90;99.90;;;;;;5049678;28;20024;-73
2023/01/10 03:03:20;;;;;;;18.17;3.50;;;6.90;99.90;;;;;;5047664;28;20489;-73
2023/01/10 03:05:51;;;;;;;19.75;3.63;;;6.80;99.90;;;;;;5050404;28;20040;-73
2023/01/10 03:08:25;;;;;;;16.60;3.67;;;6.90;99.90;;;;;;5051779;28;20434;-74
2023/01/10 03:11:07;;;;;;;23.73;3.97;;;6.90;99.90;;;;;;5045081;28;20488;-74
2023/01/10 03:13:51;;;;;;;20.38;3.13;;;6.90;99.90;;;;;;5052773;28;20037;-74
2023/01/10 03:16:21;;;;;;;20.95;3.55;;;6.80;99.90;;;;;;5069398;28;20021;-73
2023/01/10 03:18:53;;;;;;;17.65;3.30;;;6.80;99.90;;;;;;5050089;28;20052;-73
2023/01/10 03:21:23;;;;;;;19.00;3.63;;;6.70;99.90;;;;;;5055038;28;20016;-73
2023/01/10 03:23:53;;;;;;;22.63;3.75;;;6.80;99.90;;;;;;5053146;28;20041;-74
2023/01/10 03:26:28;;;;;;;17.92;3.70;;;6.80;99.90;;;;;;5042705;28;20030;-71
2023/01/10 03:29:02;;;;;;;23.10;4.13;;;6.70;99.90;;;;;;5051396;28;20025;-72
2023/01/10 03:31:35;;;;;;;14.95;3.20;;;6.70;99.90;;;;;;5039748;28;20492;-72
2023/01/10 03:34:01;;;;;;;;;;;6.80;99.90;;;;;;5053770;28;20060;-71
2023/01/10 03:36:43;;;;;;;23.75;3.78;;;6.80;99.90;;;;;;5054371;28;19916;-73
2023/01/10 03:39:28;;;;;;;16.95;3.92;;;6.90;99.90;;;;;;5049314;28;20021;-73
2023/01/10 03:41:57;;;;;;;13.75;3.63;;;6.70;99.90;;;;;;5060409;28;20094;-73
2023/01/10 03:44:43;;;;;;;21.45;4.25;;;6.80;99.90;;;;;;5047863;28;20029;-72
2023/01/10 03:47:28;;;;;;;25.27;3.92;;;6.80;99.90;;;;;;5065347;28;20040;-73
2023/01/10 03:49:58;;;;;;;20.35;3.63;;;6.90;99.90;;;;;;5049903;28;20412;-73
2023/01/10 03:52:24;;;;;;;22.30;3.80;;;6.90;99.90;;;;;;5046172;28;20041;-73
2023/01/10 03:54:52;;;;;;;19.00;3.83;;;6.90;99.90;;;;;;5052284;28;20474;-73
2023/01/10 03:57:20;;;;;;;24.67;4.53;;;7.00;99.90;;;;;;5047954;28;20093;-71
2023/01/10 03:59:49;;;;;;;28.63;4.47;;;7.00;99.90;;;;;;5054422;28;20029;-74
2023/01/10 04:02:14;;;;;;;20.90;4.07;;;7.10;99.90;;;;;;5049165;28;20033;-72
2023/01/10 04:04:40;;;;;;;17.65;3.70;;;7.00;99.90;;;;;;5054748;28;20067;-73
2023/01/10 04:07:06;;;;;;;33.05;4.15;;;7.10;99.90;;;;;;5055131;28;20025;-73
2023/01/10 04:09:31;;;;;;;22.35;4.03;;;7.20;99.90;;;;;;5050353;28;20029;-73
2023/01/10 04:11:57;;;;;;;20.65;3.75;;;7.10;99.90;;;;;;5062601;28;20024;-74
2023/01/10 04:14:23;;;;;;;26.60;5.00;;;7.00;99.90;;;;;;5046156;28;20116;-72
2023/01/10 04:16:48;;;;;;;23.20;4.07;;;7.10;99.90;;;;;;5056109;28;20405;-73
2023/01/10 04:19:14;;;;;;;20.80;3.88;;;7.10;99.90;;;;;;5062380;28;20060;-70
2023/01/10 04:21:39;;;;;;;25.30;4.88;;;7.10;99.90;;;;;;5056143;28;20033;-74
2023/01/10 04:24:05;;;;;;;24.42;4.15;;;7.00;99.90;;;;;;5065310;28;20524;-71
2023/01/10 04:26:31;;;;;;;22.55;4.15;;;7.00;99.90;;;;;;5059671;28;20035;-72
2023/01/10 04:28:56;;;;;;;25.85;4.32;;;7.00;99.90;;;;;;5052673;28;20453;-74
2023/01/10 04:31:22;;;;;;;28.60;4.80;;;7.00;99.90;;;;;;5053012;28;20035;-74
2023/01/10 04:33:48;;;;;;;20.35;4.10;;;6.90;99.90;;;;;;5051411;28;20036;-73
2023/01/10 04:36:13;;;;;;;23.92;4.15;;;7.00;99.90;;;;;;5059871;28;20499;-71
2023/01/10 04:38:39;;;;;;;31.08;4.47;;;7.00;99.90;;;;;;5054067;28;20037;-71
2023/01/10 04:41:05;;;;;;;19.75;4.07;;;7.00;99.90;;;;;;5055271;28;20025;-73
2023/01/10 04:43:30;;;;;;;31.98;5.32;;;7.00;99.90;;;;;;5057302;28;20480;-73
2023/01/10 04:45:56;;;;;;;23.30;4.10;;;7.00;99.90;;;;;;5063725;28;20030;-73
2023/01/10 04:48:21;;;;;;;31.80;4.10;;;7.00;99.90;;;;;;5054535;28;20037;-73
2023/01/10 04:50:52;;;;;;;22.65;4.70;;;7.10;99.90;;;;;;5055211;28;20421;-73
2023/01/10 04:53:18;;;;;;;32.67;4.63;;;7.20;99.90;;;;;;5061463;28;20469;-74
2023/01/10 04:55:44;;;;;;;31.80;4.78;;;7.20;99.90;;;;;;5057900;28;20428;-73
2023/01/10 04:58:10;;;;;;;39.72;6.00;;;7.20;99.90;;;;;;5059923;28;20025;-72
2023/01/10 05:00:36;;;;;;;28.70;4.95;;;7.10;99.90;;;;;;5062993;28;20132;-73
2023/01/10 05:03:02;;;;;;;35.50;5.90;;;7.20;99.90;;;;;;5054581;28;20116;-72
2023/01/10 05:05:28;;;;;;;29.60;5.70;;;7.10;99.90;;;;;;5051436;28;20425;-73
2023/01/10 05:07:53;;;;;;;33.08;5.95;;;7.20;99.90;;;;;;5057666;28;20116;-74
2023/01/10 05:10:19;;;;;;;25.65;5.68;;;7.20;99.90;;;;;;5050222;28;20108;-74
2023/01/10 05:12:45;;;;;;;33.78;5.70;;;7.10;99.90;;;;;;5054281;28;20032;-72
2023/01/10 05:15:11;;;;;;;32.38;5.45;;;7.10;99.90;;;;;;5063754;28;20035;-71
2023/01/10 05:17:37;;;;;;;28.77;5.18;;;7.10;99.90;;;;;;5060321;28;20029;-74
2023/01/10 05:20:03;;;;;;;27.50;4.70;;;7.00;99.90;;;;;;5051681;28;20033;-73
2023/01/10 05:22:29;;;;;;;27.73;5.25;;;7.00;99.90;;;;;;5055869;28;20055;-73
2023/01/10 05:24:55;;;;;;;38.85;5.10;;;7.00;99.90;;;;;;5056158;28;20487;-74
2023/01/10 05:27:20;;;;;;;38.08;6.28;;;7.10;99.90;;;;;;5052702;28;20029;-73
2023/01/10 05:29:46;;;;;;;39.38;6.22;;;7.10;99.90;;;;;;5058941;28;20051;-73
2023/01/10 05:32:11;;;;;;;37.53;5.50;;;7.00;99.90;;;;;;5056899;28;20401;-73
2023/01/10 05:34:37;;;;;;;33.97;5.40;;;7.00;99.90;;;;;;5062237;28;20095;-74
2023/01/10 05:37:02;;;;;;;28.15;4.85;;;7.00;99.90;;;;;;5062246;28;20031;-73
2023/01/10 05:39:28;;;;;;;30.55;6.10;;;7.10;99.90;;;;;;5057689;28;20029;-73
2023/01/10 05:41:54;;;;;;;28.38;5.43;;;7.00;99.90;;;;;;5048222;28;20040;-74
2023/01/10 05:44:19;;;;;;;30.48;5.50;;;6.90;99.90;;;;;;5059854;28;20028;-74
2023/01/10 05:46:45;;;;;;;25.50;4.82;;;7.00;99.90;;;;;;5060939;28;20488;-71
2023/01/10 05:49:11;;;;;;;35.30;5.20;;;7.00;99.90;;;;;;5051420;28;20025;-73
2023/01/10 05:51:36;;;;;;;28.17;5.05;;;7.00;99.90;;;;;;5057858;28;20171;-73
2023/01/10 05:54:02;;;;;;;27.30;4.07;;;6.90;99.90;;;;;;5054533;28;20025;-73
2023/01/10 05:56:28;;;;;;;29.55;5.10;;;6.90;99.90;;;;;;5055095;28;20025;-73
2023/01/10 05:58:53;;;;;;;25.42;4.35;;;7.00;99.90;;;;;;5053401;28;20017;-72
2023/01/10 06:01:19;;;;;;;28.08;5.28;;;7.00;99.90;;;;;;5055874;28;20025;-74
2023/01/10 06:03:45;;;;;;;36.45;5.88;;;6.90;99.90;;;;;;5058045;28;20024;-72
2023/01/10 06:06:11;;;;;;;23.30;4.47;;;6.90;99.90;;;;;;5052828;28;20104;-73
2023/01/10 06:08:36;;;;;;;28.10;4.57;;;6.90;99.90;;;;;;5057103;28;20079;-73
2023/01/10 06:11:03;;;;;;;23.02;5.25;;;6.80;99.90;;;;;;5055635;28;20025;-73
2023/01/10 06:13:29;;;;;;;30.40;4.82;;;6.80;99.90;;;;;;5060167;28;20136;-74
2023/01/10 06:15:54;;;;;;;26.92;5.45;;;6.90;99.90;;;;;;5050150;28;20111;-74
2023/01/10 06:18:20;;;;;;;27.13;4.35;;;7.00;99.90;;;;;;5056699;28;20079;-73
2023/01/10 06:20:46;;;;;;;22.95;4.28;;;6.90;99.90;;;;;;5050963;28;20025;-74
2023/01/10 06:23:11;;;;;;;33.13;5.50;;;6.80;99.90;;;;;;5057803;28;20507;-74
2023/01/10 06:25:39;;;;;;;28.92;5.50;;;6.90;99.90;;;;;;5054067;28;20056;-74
2023/01/10 06:28:09;;;;;;;33.25;6.70;;;6.90;99.90;;;;;;5053780;28;20024;-74
2023/01/10 06:30:35;;;;;;;30.45;6.03;;;6.90;99.90;;;;;;5050728;28;20083;-74
2023/01/10 06:33:05;;;;;;;25.50;5.75;;;6.80;99.90;;;;;;5061978;28;20037;-74
2023/01/10 06:35:32;;;;;;;33.72;5.78;;;6.70;99.90;;;;;;5052816;28;20470;-74
2023/01/10 06:37:57;;;;;;;41.13;6.13;;;6.70;99.90;;;;;;5048028;28;20599;-74
2023/01/10 06:40:24;;;;;;;32.45;6.30;;;6.70;99.90;;;;;;5055300;28;20095;-74
2023/01/10 06:42:49;;;;;;;29.05;5.90;;;6.60;99.90;;;;;;5059938;28;20033;-74
2023/01/10 06:45:15;;;;;;;29.30;5.05;;;6.70;99.90;;;;;;5045031;28;20377;-74
2023/01/10 06:47:41;;;;;;;25.35;4.57;;;6.60;99.90;;;;;;5060158;28;20021;-74
2023/01/10 06:50:07;;;;;;;29.15;4.75;;;6.70;99.90;;;;;;5046554;28;20536;-72
2023/01/10 06:52:33;;;;;;;43.22;5.50;;;6.60;99.90;;;;;;5052650;28;20071;-74
2023/01/10 06:54:59;;;;;;;35.65;5.28;;;6.70;99.90;;;;;;5056455;28;20053;-74
2023/01/10 06:57:24;;;;;;;42.92;5.72;;;6.70;99.90;;;;;;5052331;28;20032;-74
2023/01/10 06:59:50;;;;;;;29.58;6.15;;;6.70;99.90;;;;;;5048711;28;20131;-71
2023/01/10 07:02:16;;;;;;;32.55;4.93;;;6.60;99.90;;;;;;5048530;28;20048;-70
2023/01/10 07:04:42;;;;;;;24.35;3.97;;;6.50;99.90;;;;;;5050076;28;20026;-72
2023/01/10 07:07:07;;;;;;;32.88;5.13;;;6.50;99.90;;;;;;5046760;28;20025;-74
2023/01/10 07:09:33;;;;;;;37.67;5.28;;;6.40;99.90;;;;;;5052649;28;20112;-74
2023/01/10 07:11:58;;;;;;;31.67;4.80;;;6.40;99.90;;;;;;5041341;28;20478;-72
2023/01/10 07:14:24;;;;;;;29.63;5.30;;;6.40;99.90;;;;;;5056869;28;20052;-75
2023/01/10 07:16:50;;;;;;;26.83;5.00;;;6.40;99.90;;;;;;5061070;28;20517;-72
2023/01/10 07:19:17;;;;;;;25.92;5.05;;;6.40;99.90;;;;;;5048575;28;20487;-74
2023/01/10 07:21:43;;;;;;;27.83;4.75;;;6.50;99.90;;;;;;5056362;28;20044;-73
2023/01/10 07:24:08;;;;;;;28.30;5.35;;;6.40;99.90;;;;;;5053362;28;20110;-72
2023/01/10 07:26:34;;;;;;;29.67;6.20;;;6.40;99.90;;;;;;5060191;28;20055;-74
2023/01/10 07:29:00;;;;;;;27.30;5.32;;;6.40;99.90;;;;;;5065457;28;20035;-73
2023/01/10 07:31:26;;;;;;;30.00;5.85;;;6.40;99.90;;;;;;5044274;28;20037;-74
2023/01/10 07:33:52;;;;;;;29.27;5.80;;;6.40;99.90;;;;;;5049696;28;20171;-74
2023/01/10 07:36:18;;;;;;;35.28;5.30;;;6.30;99.90;;;;;;5044487;28;20120;-73
2023/01/10 07:38:43;;;;;;;32.85;5.78;;;6.30;99.90;;;;;;5051110;28;20145;-73
2023/01/10 07:41:09;;;;;;;30.92;6.40;;;6.30;99.90;;;;;;5053051;28;20032;-71
2023/01/10 07:43:35;;;;;;;27.85;5.40;;;6.40;99.90;;;;;;5048937;28;20093;-73
2023/01/10 07:46:02;;;;;;;34.67;5.15;;;6.30;99.90;;;;;;5057334;28;20043;-71
2023/01/10 07:48:28;;;;;;;35.38;6.00;;;6.20;99.90;;;;;;5046722;28;20025;-69
2023/01/10 07:50:58;;;;;;;36.38;5.63;;;6.20;99.90;;;;;;5056184;28;20225;-74
2023/01/10 07:53:25;;;;;;;31.65;5.28;;;6.20;99.90;;;;;;5061349;28;20037;-74
2023/01/10 07:55:51;;;;;;;35.17;6.03;;;6.20;99.90;;;;;;5051634;28;20029;-73
2023/01/10 07:58:16;;;;;;;48.90;6.70;;;6.20;99.90;;;;;;5062002;28;20077;-74
2023/01/10 08:00:42;;;;;;;33.83;5.97;;;6.30;99.90;;;;;;5066471;28;20020;-74
2023/01/10 08:03:09;;;;;;;33.88;6.50;;;6.30;99.90;;;;;;5060349;28;20555;-72
2023/01/10 08:05:35;;;;;;;34.10;6.80;;;6.20;99.90;;;;;;5056080;28;20017;-72
2023/01/10 08:08:08;;;;;;;26.75;6.07;;;6.20;99.90;;;;;;5049944;28;20381;-70
2023/01/10 08:10:35;;;;;;;27.25;6.53;;;6.20;99.90;;;;;;5057454;28;20031;-72
2023/01/10 08:13:01;;;;;;;25.40;5.63;;;6.20;99.90;;;;;;5049733;28;20078;-71
2023/01/10 08:15:26;;;;;;;26.30;5.43;;;6.30;99.90;;;;;;5058443;28;20021;-71
2023/01/10 08:17:52;;;;;;;30.48;5.25;;;6.30;99.90;;;;;;5053892;28;20044;-70
2023/01/10 08:20:18;;;;;;;42.65;6.03;;;6.30;99.90;;;;;;5054042;28;20053;-74
2023/01/10 08:22:43;;;;;;;25.08;4.80;;;6.40;99.90;;;;;;5051722;28;20032;-71
2023/01/10 08:25:09;;;;;;;38.38;5.25;;;6.40;99.90;;;;;;5051957;28;20035;-72
2023/01/10 08:27:35;;;;;;;25.35;5.10;;;6.40;99.90;;;;;;5060544;28;20083;-73
2023/01/10 08:30:01;;;;;;;31.95;5.07;;;6.40;99.90;;;;;;5054764;28;20075;-73
2023/01/10 08:32:27;;;;;;;36.17;5.55;;;6.50;99.90;;;;;;5053595;28;20050;-73
2023/01/10 08:34:52;;;;;;;28.88;5.15;;;6.50;99.90;;;;;;5048591;28;20120;-72
2023/01/10 08:37:18;;;;;;;25.27;5.07;;;6.50;99.90;;;;;;5053851;28;20439;-74
2023/01/10 08:39:43;;;;;;;25.90;6.03;;;6.40;99.90;;;;;;5053676;28;20025;-70
2023/01/10 08:42:09;;;;;;;26.88;4.90;;;6.50;99.90;;;;;;5053436;28;20040;-73
2023/01/10 08:44:35;;;;;;;19.58;4.70;;;6.50;99.90;;;;;;5053681;28;20476;-73
2023/01/10 08:47:01;;;;;;;29.05;5.57;;;6.40;99.90;;;;;;5050545;28;20120;-73
2023/01/10 08:49:26;;;;;;;25.05;5.10;;;6.50;99.90;;;;;;5052449;28;20483;-73
2023/01/10 08:51:52;;;;;;;27.70;4.72;;;6.50;99.90;;;;;;5052248;28;20431;-74
2023/01/10 08:54:18;;;;;;;34.88;6.57;;;6.50;99.90;;;;;;5053037;28;20122;-74
2023/01/10 08:56:43;;;;;;;29.85;5.43;;;6.60;99.90;;;;;;5057651;28;20108;-71
2023/01/10 08:59:09;;;;;;;29.65;4.72;;;6.60;99.90;;;;;;5059961;28;20032;-70
2023/01/10 09:01:34;;;;;;;32.10;5.35;;;6.60;99.90;;;;;;5056178;28;20032;-72
2023/01/10 09:04:00;;;;;;;25.48;4.82;;;6.60;99.90;;;;;;5060499;28;20516;-73
2023/01/10 09:06:26;;;;;;;24.80;5.18;;;6.80;99.90;;;;;;5052551;28;20025;-73
2023/01/10 09:08:51;;;;;;;23.00;5.22;;;6.80;99.90;;;;;;5058313;28;20028;-69
2023/01/10 09:11:17;;;;;;;26.50;4.88;;;6.80;99.90;;;;;;5057872;28;20031;-72
2023/01/10 09:13:42;;;;;;;20.25;5.25;;;6.90;99.90;;;;;;5051816;28;20045;-71
2023/01/10 09:16:08;;;;;;;25.65;5.30;;;6.90;99.90;;;;;;5055394;28;20021;-74
2023/01/10 09:18:35;;;;;;;34.78;5.32;;;6.90;99.90;;;;;;5049296;28;20640;-74
2023/01/10 09:21:02;;;;;;;20.20;4.07;;;6.90;99.90;;;;;;5056487;28;20095;-73
2023/01/10 09:23:27;;;;;;;36.85;5.20;;;7.10;99.90;;;;;;5057325;28;20017;-74
2023/01/10 09:25:56;;;;;;;23.73;5.25;;;7.00;99.90;;;;;;5052089;28;20018;-74
2023/01/10 09:28:23;;;;;;;26.42;4.63;;;7.10;99.90;;;;;;5052344;28;20098;-73
2023/01/10 09:30:49;;;;;;;27.67;5.30;;;7.20;99.90;;;;;;5054572;28;20033;-74
2023/01/10 09:33:15;;;;;;;27.50;5.10;;;7.20;99.90;;;;;;5049032;28;20037;-74
2023/01/10 09:35:42;;;;;;;25.05;4.78;;;7.20;99.90;;;;;;5057893;28;20032;-74
2023/01/10 09:38:11;;;;;;;30.08;4.97;;;7.20;99.90;;;;;;5057276;28;20033;-74
2023/01/10 09:40:42;;;;;;;22.73;5.25;;;7.30;99.90;;;;;;5056454;28;20103;-74
2023/01/10 09:43:26;;;;;;;32.22;5.32;;;7.20;99.90;;;;;;5057737;28;20025;-73
2023/01/10 09:46:30;;;;;;;28.08;4.93;;;7.20;99.90;;;;;;5050272;28;20040;-74
2023/01/10 09:49:34;;;;;;;24.42;6.20;;;7.30;99.90;;;;;;5037432;28;20024;-74
2023/01/10 09:52:01;;;;;;;25.70;4.68;;;7.30;99.90;;;;;;5047244;28;20044;-72
2023/01/10 09:54:35;;;;;;;33.55;5.05;;;7.40;99.90;;;;;;5050851;28;20045;-74
2023/01/10 09:57:01;;;;;;;21.10;4.22;;;7.40;99.90;;;;;;5053178;28;20306;-72
2023/01/10 09:59:36;;;;;;;25.30;4.78;;;7.50;99.90;;;;;;5050322;28;20104;-70
2023/01/10 10:02:19;;;;;;;21.05;4.35;;;7.50;99.90;;;;;;5050624;28;20051;-71
2023/01/10 10:05:17;;;;;;;29.60;5.18;;;7.50;99.90;;;;;;5050557;28;20115;-72
2023/01/10 10:07:43;;;;;;;30.70;5.75;;;7.60;99.90;;;;;;5054770;28;20131;-71
2023/01/10 10:10:20;;;;;;;24.90;5.65;;;7.70;99.90;;;;;;5049000;28;20537;-73
2023/01/10 10:12:59;;;;;;;29.02;5.30;;;7.70;99.90;;;;;;5052111;28;20069;-72
2023/01/10 10:15:43;;;;;;;21.17;4.60;;;7.70;99.90;;;;;;5054496;28;20021;-73
2023/01/10 10:18:28;;;;;;;24.20;5.40;;;7.80;99.90;;;;;;5055027;28;20481;-74
2023/01/10 10:21:04;;;;;;;36.40;6.13;;;7.90;99.90;;;;;;5041718;28;20054;-75
2023/01/10 10:23:49;;;;;;;24.05;4.95;;;7.90;99.90;;;;;;5049237;28;20552;-75
2023/01/10 10:26:17;;;;;;;24.92;5.30;;;7.90;99.90;;;;;;5045400;28;20071;-72
2023/01/10 10:29:13;;;;;;;27.35;4.28;;;8.00;99.90;;;;;;5051309;28;20052;-72
2023/01/10 10:31:53;;;;;;;18.95;4.72;;;8.00;99.90;;;;;;5047392;28;20029;-70
2023/01/10 10:35:00;;;;;;;30.77;5.68;;;8.00;99.90;;;;;;5045058;28;20029;-73
2023/01/10 10:37:34;;;;;;;27.83;5.20;;;8.00;99.90;;;;;;5027340;28;20111;-73
2023/01/10 10:40:14;;;;;;;28.40;4.55;;;8.10;99.90;;;;;;5048862;28;20290;-72
2023/01/10 10:42:49;;;;;;;24.00;4.57;;;8.10;99.90;;;;;;5039962;28;20038;-73
2023/01/10 10:45:39;;;;;;;21.40;4.97;;;8.10;99.90;;;;;;5047699;28;20391;-73
2023/01/10 10:48:11;;;;;;;19.40;3.75;;;8.10;99.90;;;;;;5054510;28;20054;-72
2023/01/10 10:50:47;;;;;;;26.60;4.50;;;8.10;99.90;;;;;;5047818;28;20025;-72
2023/01/10 10:53:12;;;;;;;26.23;4.40;;;8.10;99.90;;;;;;5051469;28;20040;-72
2023/01/10 10:55:38;;;;;;;29.70;5.13;;;8.10;99.90;;;;;;5052068;28;20029;-71
2023/01/10 10:58:06;;;;;;;24.73;4.60;;;8.20;99.90;;;;;;5053345;28;20434;-73
2023/01/10 11:00:32;;;;;;;21.63;4.35;;;8.20;99.90;;;;;;5053129;28;20021;-73
2023/01/10 11:03:12;;;;;;;23.40;4.75;;;8.20;99.90;;;;;;5048814;28;20025;-73
2023/01/10 11:05:40;;;;;;;33.88;4.82;;;8.20;99.90;;;;;;5047205;28;20025;-73
2023/01/10 11:08:11;;;;;;;24.38;4.80;;;8.20;99.90;;;;;;5052339;28;20026;-73
2023/01/10 11:10:38;;;;;;;21.48;4.82;;;8.30;99.90;;;;;;5052276;28;20344;-73
2023/01/10 11:13:32;;;;;;;20.50;4.07;;;8.30;99.90;;;;;;5059744;28;20041;-73
2023/01/10 11:16:00;;;;;;;25.25;5.10;;;8.50;99.90;;;;;;5038924;28;20040;-73
2023/01/10 11:18:27;;;;;;;22.17;4.75;;;8.50;99.90;;;;;;5060061;28;20392;-73
2023/01/10 11:21:02;;;;;;;22.73;5.22;;;8.60;99.90;;;;;;5049511;28;20021;-72
2023/01/10 11:23:40;;;;;;;20.40;3.88;;;8.60;99.90;;;;;;5051020;28;20056;-73
2023/01/10 11:26:09;;;;;;;23.05;4.32;;;8.60;99.90;;;;;;5052374;28;20053;-71
2023/01/10 11:28:35;;;;;;;27.08;4.38;;;8.70;99.90;;;;;;5043399;28;20017;-72
2023/01/10 11:31:02;;;;;;;27.70;4.63;;;8.70;99.90;;;;;;5055544;28;20399;-73
2023/01/10 11:33:34;;;;;;;25.20;5.50;;;8.60;99.90;;;;;;5045523;28;20096;-73
2023/01/10 11:36:09;;;;;;;28.08;5.38;;;8.70;99.90;;;;;;5053411;28;20048;-72
2023/01/10 11:38:35;;;;;;;22.98;4.65;;;8.70;99.90;;;;;;5050214;28;20060;-74
2023/01/10 11:41:04;;;;;;;26.05;5.28;;;8.70;99.90;;;;;;5054172;28;20040;-72
2023/01/10 11:43:37;;;;;;;23.20;5.25;;;8.80;99.90;;;;;;5048894;28;20029;-72
2023/01/10 11:46:21;;;;;;;21.13;4.80;;;8.70;99.90;;;;;;5049891;28;20393;-72
2023/01/10 11:49:00;;;;;;;24.85;4.72;;;8.70;99.90;;;;;;5050766;28;20028;-73
2023/01/10 11:51:30;;;;;;;24.70;4.78;;;8.80;99.90;;;;;;5054366;28;20024;-72
2023/01/10 11:54:09;;;;;;;27.70;4.68;;;8.80;99.90;;;;;;5044259;28;20036;-73
2023/01/10 11:56:38;;;;;;;22.95;5.53;;;8.80;99.90;;;;;;5055506;28;20029;-73
2023/01/10 11:59:14;;;;;;;20.92;4.72;;;8.80;99.90;;;;;;5045870;28;20041;-73
2023/01/10 12:01:47;;;;;;;22.92;4.60;;;8.80;99.90;;;;;;5049452;28;20021;-72
2023/01/10 12:04:19;;;;;;;26.58;5.03;;;8.80;99.90;;;;;;5048145;28;20029;-72
2023/01/10 12:06:48;;;;;;;35.42;5.80;;;8.80;99.90;;;;;;5048669;28;20464;-71
2023/01/10 12:09:35;;;;;;;25.75;5.05;;;8.70;99.90;;;;;;5051605;28;20012;-70
2023/01/10 12:12:32;;;;;;;33.83;4.70;;;8.80;99.90;;;;;;5052161;28;20048;-70
2023/01/10 12:15:19;;;;;;;21.92;4.90;;;8.80;99.90;;;;;;5051589;28;20088;-70
2023/01/10 12:17:44;;;;;;;22.58;5.47;;;8.80;99.90;;;;;;5050533;28;20411;-70
2023/01/10 12:20:13;;;;;;;25.35;6.30;;;8.90;99.90;;;;;;5055127;28;20142;-71
2023/01/10 12:22:41;;;;;;;29.15;6.03;;;8.80;99.90;;;;;;5051874;28;20034;-70
2023/01/10 12:25:27;;;;;;;27.17;5.57;;;9.00;99.90;;;;;;5048246;28;20028;-70
2023/01/10 12:27:55;;;;;;;19.85;4.72;;;8.90;99.90;;;;;;5056451;28;20048;-70
2023/01/10 12:30:42;;;;;;;24.58;5.35;;;8.90;99.90;;;;;;5051089;28;20454;-70
2023/01/10 12:33:20;;;;;;;26.58;4.53;;;8.90;99.90;;;;;;5053314;28;20080;-70
2023/01/10 12:35:53;;;;;;;21.45;5.07;;;8.90;99.90;;;;;;5050807;28;20057;-72
2023/01/10 12:44:10;;;;;;;27.10;5.25;;;8.90;99.90;;;;;;5054721;28;20083;-70
2023/01/10 12:44:11;;;;;;;32.00;6.78;;;8.90;99.90;;;;;;5018659;28;20060;-70
2023/01/10 12:47:05;;;;;;;31.55;5.63;;;8.90;99.90;;;;;;5047251;28;20024;-70
2023/01/10 12:49:43;;;;;;;19.75;4.80;;;8.90;99.90;;;;;;5049162;28;20584;-70
2023/01/10 12:52:19;;;;;;;24.83;5.13;;;8.90;99.90;;;;;;5045277;28;20075;-70
2023/01/10 12:54:46;;;;;;;20.52;4.85;;;8.90;99.90;;;;;;5048968;28;20036;-70
2023/01/10 12:57:43;;;;;;;25.95;4.68;;;8.90;99.90;;;;;;5061473;28;20087;-70
2023/01/10 13:00:32;;;;;;;24.80;4.35;;;8.90;99.90;;;;;;5048286;28;20116;-70
2023/01/10 13:02:59;;;;;;;22.05;4.15;;;9.00;99.90;;;;;;5045689;28;20029;-71
2023/01/10 13:05:28;;;;;;;24.05;4.45;;;9.00;99.90;;;;;;5046363;28;20056;-71
2023/01/10 13:07:59;;;;;;;30.58;9.20;;;9.10;99.90;;;;;;5046229;28;20120;-70
2023/01/10 13:10:27;;;;;;;25.35;4.80;;;9.00;99.90;;;;;;5043872;28;20096;-70
2023/01/10 13:13:00;;;;;;;27.00;4.82;;;9.10;99.90;;;;;;5040863;28;20049;-70